createdAt,value
2022-12-16T00:00:06.418Z,29.40
2022-12-16T00:02:33.312Z,29.25
2022-12-16T00:05:00.144Z,29.27
2022-12-16T00:07:30.015Z,28.58
2022-12-16T00:09:56.656Z,30.13
2022-12-16T00:12:23.373Z,28.65
2022-12-16T00:14:50.051Z,28.85
2022-12-16T00:17:17.108Z,30.08
2022-12-16T00:19:43.795Z,28.98
2022-12-16T00:22:10.409Z,29.25
2022-12-16T00:24:37.274Z,28.23
2022-12-16T00:27:04.124Z,29.60
2022-12-16T00:29:30.868Z,27.48
2022-12-16T00:31:57.572Z,28.10
2022-12-16T00:34:24.240Z,29.50
2022-12-16T00:36:50.869Z,28.60
2022-12-16T00:39:17.609Z,29.25
2022-12-16T00:41:44.222Z,28.95
2022-12-16T00:44:10.920Z,29.75
2022-12-16T00:46:37.556Z,28.75
2022-12-16T00:49:04.277Z,29.38
2022-12-16T00:51:30.899Z,29.02
2022-12-16T00:53:57.504Z,29.42
2022-12-16T00:56:30.394Z,29.60
2022-12-16T00:58:57.002Z,28.15
2022-12-16T01:01:23.744Z,29.15
2022-12-16T01:03:50.546Z,28.33
2022-12-16T01:06:18.339Z,29.42
2022-12-16T01:08:51.145Z,28.90
2022-12-16T01:11:19.945Z,29.02
2022-12-16T01:13:50.379Z,30.10
2022-12-16T01:16:19.241Z,29.73
2022-12-16T01:18:45.966Z,28.52
2022-12-16T01:21:14.411Z,28.52
2022-12-16T01:23:41.220Z,29.00
2022-12-16T01:26:07.834Z,27.85
2022-12-16T01:28:34.848Z,28.08
2022-12-16T01:31:02.034Z,28.65
2022-12-16T01:33:30.403Z,27.58
2022-12-16T01:36:02.100Z,28.80
2022-12-16T01:38:29.227Z,28.17
2022-12-16T01:40:55.851Z,29.13
2022-12-16T01:43:43.057Z,27.13
2022-12-16T01:46:17.094Z,28.77
2022-12-16T01:48:47.467Z,28.58
2022-12-16T01:51:21.767Z,28.65
2022-12-16T01:53:49.526Z,27.88
2022-12-16T01:56:18.527Z,28.88
2022-12-16T01:58:45.969Z,29.20
2022-12-16T02:01:14.370Z,27.85
2022-12-16T02:03:42.326Z,29.00
2022-12-16T02:06:09.288Z,28.38
2022-12-16T02:08:35.947Z,28.40
2022-12-16T02:11:39.720Z,28.27
2022-12-16T02:14:17.656Z,27.92
2022-12-16T02:17:10.290Z,28.88
2022-12-16T02:20:07.372Z,27.65
2022-12-16T02:23:02.188Z,27.27
2022-12-16T02:25:58.168Z,28.33
2022-12-16T02:28:40.519Z,28.23
2022-12-16T02:31:19.384Z,27.10
2022-12-16T02:34:09.134Z,26.27
2022-12-16T02:36:45.384Z,27.40
2022-12-16T02:39:20.881Z,27.65
2022-12-16T02:41:49.563Z,27.60
2022-12-16T02:44:17.368Z,26.73
2022-12-16T02:46:53.439Z,27.95
2022-12-16T02:49:22.268Z,27.67
2022-12-16T02:51:49.861Z,27.33
2022-12-16T02:54:17.825Z,27.92
2022-12-16T02:57:16.904Z,26.48
2022-12-16T03:00:01.730Z,28.45
2022-12-16T03:02:42.215Z,26.77
2022-12-16T03:05:16.042Z,26.52
2022-12-16T03:07:44.327Z,26.95
2022-12-16T03:10:15.413Z,27.63
2022-12-16T03:12:44.440Z,28.10
2022-12-16T03:15:14.010Z,27.80
2022-12-16T03:17:41.323Z,27.90
2022-12-16T03:20:12.385Z,28.23
2022-12-16T03:22:42.270Z,27.83
2022-12-16T03:25:09.540Z,27.85
2022-12-16T03:27:46.644Z,28.80
2022-12-16T03:30:16.605Z,28.15
2022-12-16T03:32:51.501Z,27.58
2022-12-16T03:35:26.000Z,26.60
2022-12-16T03:37:55.490Z,28.38
2022-12-16T03:40:22.907Z,28.05
2022-12-16T03:42:49.950Z,27.40
2022-12-16T03:45:21.239Z,27.83
2022-12-16T03:47:51.763Z,28.55
2022-12-16T03:50:20.247Z,26.92
2022-12-16T03:52:46.916Z,26.85
2022-12-16T03:55:13.564Z,26.90
2022-12-16T03:57:40.229Z,27.60
2022-12-16T04:00:07.831Z,27.40
2022-12-16T04:02:38.756Z,27.55
2022-12-16T04:05:05.828Z,25.92
2022-12-16T04:07:32.462Z,26.50
2022-12-16T04:09:59.613Z,27.60
2022-12-16T04:12:44.933Z,27.35
2022-12-16T04:15:30.323Z,26.77
2022-12-16T04:18:15.580Z,27.08
2022-12-16T04:21:07.073Z,27.67
2022-12-16T04:23:53.842Z,27.52
2022-12-16T04:26:21.057Z,27.83
2022-12-16T04:28:47.789Z,26.80
2022-12-16T04:31:14.505Z,28.00
2022-12-16T04:33:59.807Z,28.25
2022-12-16T04:36:45.063Z,26.77
2022-12-16T04:39:30.346Z,26.15
2022-12-16T04:42:15.697Z,28.45
2022-12-16T04:45:00.974Z,26.65
2022-12-16T04:47:46.407Z,27.23
2022-12-16T04:50:31.761Z,27.67
2022-12-16T04:53:17.063Z,27.08
2022-12-16T04:56:04.391Z,29.10
2022-12-16T04:58:50.186Z,26.98
2022-12-16T05:01:35.504Z,27.35
2022-12-16T05:04:21.239Z,27.35
2022-12-16T05:07:06.399Z,28.23
2022-12-16T05:09:51.751Z,26.70
2022-12-16T05:12:36.993Z,26.30
2022-12-16T05:15:22.254Z,26.38
2022-12-16T05:18:07.607Z,26.70
2022-12-16T05:20:52.944Z,26.88
2022-12-16T05:23:40.692Z,26.20
2022-12-16T05:26:26.010Z,25.52
2022-12-16T05:29:11.259Z,27.38
2022-12-16T05:31:57.144Z,26.67
2022-12-16T05:34:42.451Z,27.33
2022-12-16T05:37:28.126Z,28.17
2022-12-16T05:40:13.669Z,26.10
2022-12-16T05:42:59.053Z,27.05
2022-12-16T05:45:44.507Z,28.92
2022-12-16T05:48:29.750Z,26.30
2022-12-16T05:51:14.975Z,26.67
2022-12-16T05:54:00.271Z,25.23
2022-12-16T05:56:45.577Z,27.08
2022-12-16T05:59:30.983Z,25.90
2022-12-16T06:02:16.226Z,26.67
2022-12-16T06:05:01.674Z,27.88
2022-12-16T06:07:46.855Z,28.98
2022-12-16T06:10:32.225Z,31.33
2022-12-16T06:13:17.428Z,31.40
2022-12-16T06:16:08.905Z,28.08
2022-12-16T06:18:54.756Z,29.15
2022-12-16T06:21:40.559Z,27.02
2022-12-16T06:24:25.817Z,26.00
2022-12-16T06:27:11.125Z,27.50
2022-12-16T06:29:56.371Z,27.58
2022-12-16T06:32:41.740Z,26.60
2022-12-16T06:35:27.089Z,27.42
2022-12-16T06:38:12.522Z,27.10
2022-12-16T06:40:57.650Z,27.58
2022-12-16T06:43:42.936Z,27.13
2022-12-16T06:46:35.848Z,27.25
2022-12-16T06:49:21.186Z,25.90
2022-12-16T06:52:06.602Z,26.88
2022-12-16T06:54:51.971Z,28.42
2022-12-16T06:57:37.363Z,27.48
2022-12-16T07:00:23.046Z,28.83
2022-12-16T07:03:08.572Z,28.10
2022-12-16T07:05:53.926Z,27.77
2022-12-16T07:08:39.170Z,26.05
2022-12-16T07:11:24.537Z,28.63
2022-12-16T07:14:09.766Z,27.70
2022-12-16T07:16:55.158Z,27.92
2022-12-16T07:19:40.650Z,28.30
2022-12-16T07:22:27.008Z,26.02
2022-12-16T07:25:12.422Z,25.85
2022-12-16T07:27:57.656Z,26.88
2022-12-16T07:30:43.148Z,26.75
2022-12-16T07:33:29.523Z,25.73
2022-12-16T07:36:17.693Z,27.23
2022-12-16T07:39:03.016Z,26.65
2022-12-16T07:41:48.033Z,24.90
2022-12-16T07:44:33.339Z,28.13
2022-12-16T07:47:21.768Z,26.95
2022-12-16T07:50:07.014Z,27.00
2022-12-16T07:52:52.325Z,26.08
2022-12-16T07:55:40.777Z,26.92
2022-12-16T07:58:26.143Z,26.40
2022-12-16T08:01:11.632Z,26.40
2022-12-16T08:03:57.248Z,27.33
2022-12-16T08:06:42.610Z,26.83
2022-12-16T08:09:28.020Z,26.63
2022-12-16T08:12:13.308Z,26.60
2022-12-16T08:14:58.762Z,27.75
2022-12-16T08:17:44.317Z,27.55
2022-12-16T08:20:29.785Z,27.63
2022-12-16T08:23:15.216Z,26.90
2022-12-16T08:26:00.671Z,28.35
2022-12-16T08:28:46.173Z,27.98
2022-12-16T08:31:31.799Z,27.20
2022-12-16T08:34:17.224Z,27.80
2022-12-16T08:37:02.492Z,27.05
2022-12-16T08:39:59.161Z,27.05
2022-12-16T08:43:11.098Z,27.25
2022-12-16T08:45:58.932Z,26.83
2022-12-16T08:48:44.372Z,26.92
2022-12-16T08:51:29.738Z,28.08
2022-12-16T08:54:15.167Z,27.67
2022-12-16T08:57:00.985Z,28.25
2022-12-16T08:59:46.251Z,27.60
2022-12-16T09:02:32.911Z,27.80
2022-12-16T09:05:18.435Z,27.42
2022-12-16T09:08:03.833Z,28.35
2022-12-16T09:10:49.425Z,29.27
2022-12-16T09:13:35.829Z,29.13
2022-12-16T09:16:21.827Z,28.42
2022-12-16T09:19:07.143Z,30.92
2022-12-16T09:22:06.584Z,29.55
2022-12-16T09:24:51.754Z,29.70
2022-12-16T09:27:38.149Z,29.67
2022-12-16T09:30:24.936Z,32.75
2022-12-16T09:33:10.469Z,32.10
2022-12-16T09:35:55.617Z,32.45
2022-12-16T09:38:41.022Z,31.83
2022-12-16T09:41:44.792Z,31.75
2022-12-16T09:44:47.347Z,31.30
2022-12-16T09:47:42.135Z,31.98
2022-12-16T09:50:40.865Z,31.58
2022-12-16T09:53:30.625Z,32.72
2022-12-16T09:56:36.304Z,32.35
2022-12-16T09:59:25.240Z,31.75
2022-12-16T10:02:11.231Z,32.53
2022-12-16T10:05:16.271Z,32.58
2022-12-16T10:08:11.973Z,31.48
2022-12-16T10:11:08.766Z,29.27
2022-12-16T10:14:24.156Z,30.63
2022-12-16T10:17:15.662Z,30.48
2022-12-16T10:20:11.498Z,28.77
2022-12-16T10:23:05.993Z,30.55
2022-12-16T10:25:58.508Z,29.50
2022-12-16T10:28:56.918Z,30.45
2022-12-16T10:31:43.973Z,30.60
2022-12-16T10:34:33.575Z,31.70
2022-12-16T10:37:21.300Z,31.55
2022-12-16T10:40:10.153Z,31.00
2022-12-16T10:43:04.060Z,31.45
2022-12-16T10:45:56.990Z,31.80
2022-12-16T10:48:51.399Z,34.20
2022-12-16T10:51:43.793Z,32.60
2022-12-16T10:54:47.063Z,32.50
2022-12-16T10:57:49.464Z,32.47
2022-12-16T11:00:40.928Z,33.50
2022-12-16T11:03:41.319Z,33.50
2022-12-16T11:06:27.137Z,34.05
2022-12-16T11:09:12.439Z,34.58
2022-12-16T11:11:57.834Z,32.95
2022-12-16T11:15:12.707Z,35.35
2022-12-16T11:17:56.297Z,37.20
2022-12-16T11:20:45.055Z,36.13
2022-12-16T11:23:33.768Z,35.17
2022-12-16T11:26:34.468Z,36.30
2022-12-16T11:29:35.631Z,35.72
2022-12-16T11:32:43.753Z,36.35
2022-12-16T11:35:32.068Z,35.15
2022-12-16T11:38:19.601Z,35.97
2022-12-16T11:41:05.914Z,37.30
2022-12-16T11:43:51.752Z,35.10
2022-12-16T11:46:44.286Z,35.65
2022-12-16T11:49:37.378Z,36.38
2022-12-16T11:52:40.213Z,36.55
2022-12-16T11:56:04.892Z,35.38
2022-12-16T11:58:59.775Z,34.53
2022-12-16T12:02:14.901Z,34.97
2022-12-16T12:05:00.301Z,34.80
2022-12-16T12:07:55.697Z,34.08
2022-12-16T12:11:02.829Z,35.65
2022-12-16T12:13:56.699Z,34.67
2022-12-16T12:17:03.911Z,33.08
2022-12-16T12:20:08.088Z,35.10
2022-12-16T12:22:58.134Z,34.15
2022-12-16T12:25:52.034Z,33.40
2022-12-16T12:29:15.464Z,33.45
2022-12-16T12:32:12.388Z,34.38
2022-12-16T12:35:08.325Z,33.10
2022-12-16T12:38:12.985Z,32.88
2022-12-16T12:41:13.599Z,34.13
2022-12-16T12:44:03.876Z,34.35
2022-12-16T12:47:04.689Z,33.65
2022-12-16T12:50:27.541Z,33.03
2022-12-16T12:53:49.623Z,32.85
2022-12-16T12:57:00.006Z,34.28
2022-12-16T12:59:50.978Z,32.10
2022-12-16T13:02:40.486Z,31.63
2022-12-16T13:05:31.055Z,31.40
2022-12-16T13:08:54.920Z,31.50
2022-12-16T13:11:42.780Z,30.60
2022-12-16T13:14:50.104Z,32.00
2022-12-16T13:17:38.023Z,30.95
2022-12-16T13:20:45.085Z,32.22
2022-12-16T13:23:59.026Z,30.45
2022-12-16T13:26:46.216Z,31.10
2022-12-16T13:29:41.738Z,30.80
2022-12-16T13:32:47.275Z,30.85
2022-12-16T13:35:32.703Z,32.15
2022-12-16T13:38:19.127Z,31.70
2022-12-16T13:41:21.230Z,31.73
2022-12-16T13:44:13.143Z,30.85
2022-12-16T13:46:58.402Z,33.13
2022-12-16T13:50:00.001Z,31.08
2022-12-16T13:52:54.060Z,31.50
2022-12-16T13:56:05.699Z,32.08
2022-12-16T13:58:57.350Z,31.48
2022-12-16T14:02:44.440Z,30.92
2022-12-16T14:05:37.012Z,31.48
2022-12-16T14:08:23.987Z,31.45
2022-12-16T14:11:16.940Z,33.35
2022-12-16T14:14:19.863Z,32.47
2022-12-16T14:17:19.285Z,31.05
2022-12-16T14:20:32.475Z,33.05
2022-12-16T14:23:55.232Z,31.58
2022-12-16T14:26:36.231Z,32.88
2022-12-16T14:29:23.047Z,31.42
2022-12-16T14:32:08.294Z,32.50
2022-12-16T14:34:55.893Z,32.85
2022-12-16T14:37:56.572Z,32.20
2022-12-16T14:40:46.335Z,31.52
2022-12-16T14:43:42.819Z,31.88
2022-12-16T14:46:46.773Z,31.95
2022-12-16T14:49:48.782Z,32.17
2022-12-16T14:52:41.526Z,31.10
2022-12-16T14:55:35.461Z,31.92
2022-12-16T14:58:42.107Z,31.80
2022-12-16T15:01:35.204Z,31.25
2022-12-16T15:04:23.788Z,31.02
2022-12-16T15:07:12.072Z,31.83
2022-12-16T15:10:07.519Z,31.60
2022-12-16T15:13:00.476Z,31.83
2022-12-16T15:15:52.912Z,31.75
2022-12-16T15:18:42.650Z,33.15
2022-12-16T15:21:27.996Z,32.72
2022-12-16T15:24:13.467Z,32.83
2022-12-16T15:26:58.735Z,33.65
2022-12-16T15:29:51.852Z,33.30
2022-12-16T15:32:46.533Z,32.25
2022-12-16T15:35:45.343Z,33.92
2022-12-16T15:38:51.823Z,33.92
2022-12-16T15:41:46.115Z,33.80
2022-12-16T15:44:35.373Z,36.72
2022-12-16T15:47:20.746Z,33.75
2022-12-16T15:50:07.242Z,33.70
2022-12-16T15:52:57.710Z,33.30
2022-12-16T15:55:46.928Z,33.15
2022-12-16T15:58:39.894Z,32.28
2022-12-16T16:01:26.213Z,35.22
2022-12-16T16:04:13.746Z,35.65
2022-12-16T16:07:17.243Z,35.58
2022-12-16T16:10:16.170Z,34.42
2022-12-16T16:13:01.620Z,33.22
2022-12-16T16:15:47.091Z,34.42
2022-12-16T16:18:32.681Z,34.83
2022-12-16T16:21:17.875Z,34.33
2022-12-16T16:24:03.200Z,33.58
2022-12-16T16:26:48.431Z,35.08
2022-12-16T16:29:33.921Z,34.70
2022-12-16T16:32:20.328Z,33.08
2022-12-16T16:35:05.489Z,33.65
2022-12-16T16:37:54.035Z,33.78
2022-12-16T16:40:54.626Z,34.15
2022-12-16T16:43:40.076Z,34.80
2022-12-16T16:46:50.707Z,35.83
2022-12-16T16:49:40.885Z,34.60
2022-12-16T16:52:33.150Z,33.80
2022-12-16T16:55:18.411Z,34.20
2022-12-16T16:58:03.907Z,32.97
2022-12-16T17:00:49.195Z,33.70
2022-12-16T17:03:35.115Z,33.75
2022-12-16T17:06:20.849Z,35.88
2022-12-16T17:09:06.179Z,34.40
2022-12-16T17:11:52.306Z,35.25
2022-12-16T17:14:39.972Z,36.65
2022-12-16T17:17:25.763Z,40.08
2022-12-16T17:20:11.089Z,37.08
2022-12-16T17:22:56.540Z,34.05
2022-12-16T17:25:42.465Z,33.75
2022-12-16T17:28:28.267Z,34.92
2022-12-16T17:31:13.550Z,32.92
2022-12-16T17:33:58.866Z,35.20
2022-12-16T17:36:44.327Z,33.47
2022-12-16T17:39:29.742Z,37.40
2022-12-16T17:42:14.904Z,36.80
2022-12-16T17:45:00.236Z,36.17
2022-12-16T17:47:45.581Z,33.47
2022-12-16T17:50:30.968Z,33.70
2022-12-16T17:53:19.671Z,33.35
2022-12-16T17:56:04.950Z,35.10
2022-12-16T17:58:55.845Z,35.00
2022-12-16T18:01:41.721Z,35.75
2022-12-16T18:04:27.377Z,35.78
2022-12-16T18:07:15.470Z,36.97
2022-12-16T18:10:00.712Z,35.17
2022-12-16T18:12:45.858Z,34.90
2022-12-16T18:15:32.699Z,34.72
2022-12-16T18:18:18.213Z,36.30
2022-12-16T18:21:03.377Z,37.00
2022-12-16T18:23:49.239Z,34.72
2022-12-16T18:26:36.055Z,35.50
2022-12-16T18:29:21.884Z,40.28
2022-12-16T18:32:07.725Z,39.95
2022-12-16T18:34:53.028Z,35.60
2022-12-16T18:37:38.172Z,35.58
2022-12-16T18:40:24.069Z,34.88
2022-12-16T18:43:09.424Z,36.42
2022-12-16T18:45:54.884Z,36.40
2022-12-16T18:48:40.169Z,36.35
2022-12-16T18:51:26.634Z,37.88
2022-12-16T18:54:11.906Z,35.63
2022-12-16T18:56:57.269Z,35.45
2022-12-16T18:59:44.378Z,34.90
2022-12-16T19:02:29.783Z,36.63
2022-12-16T19:05:15.274Z,37.50
2022-12-16T19:08:00.728Z,36.40
2022-12-16T19:10:45.993Z,35.70
2022-12-16T19:13:32.422Z,36.05
2022-12-16T19:16:17.689Z,38.72
2022-12-16T19:19:03.185Z,38.42
2022-12-16T19:21:52.407Z,36.95
2022-12-16T19:24:43.318Z,36.95
2022-12-16T19:27:28.590Z,37.03
2022-12-16T19:30:15.249Z,37.45
2022-12-16T19:33:07.091Z,38.20
2022-12-16T19:35:52.509Z,35.70
2022-12-16T19:38:38.954Z,36.97
2022-12-16T19:41:33.547Z,38.08
2022-12-16T19:44:19.727Z,38.60
2022-12-16T19:47:07.059Z,37.65
2022-12-16T19:49:52.320Z,37.70
2022-12-16T19:52:40.090Z,35.63
2022-12-16T19:55:25.995Z,38.28
2022-12-16T19:58:11.984Z,37.55
2022-12-16T20:00:57.578Z,36.05
2022-12-16T20:03:43.090Z,58.70
2022-12-16T20:06:28.757Z,54.10
2022-12-16T20:09:15.041Z,55.92
2022-12-16T20:12:01.357Z,63.35
2022-12-16T20:14:47.494Z,48.83
2022-12-16T20:17:33.311Z,44.67
2022-12-16T20:20:18.459Z,41.13
2022-12-16T20:23:03.805Z,38.30
2022-12-16T20:25:50.410Z,38.15
2022-12-16T20:28:38.639Z,38.80
2022-12-16T20:31:24.112Z,37.75
2022-12-16T20:34:16.399Z,38.25
2022-12-16T20:37:01.783Z,37.78
2022-12-16T20:39:56.440Z,37.50
2022-12-16T20:42:42.658Z,40.05
2022-12-16T20:45:28.105Z,37.00
2022-12-16T20:48:13.428Z,37.88
2022-12-16T20:50:58.882Z,37.22
2022-12-16T20:53:44.244Z,38.22
2022-12-16T20:56:29.851Z,37.97
2022-12-16T20:59:29.800Z,37.65
2022-12-16T21:02:23.242Z,37.50
2022-12-16T21:05:09.143Z,36.33
2022-12-16T21:07:54.717Z,37.58
2022-12-16T21:10:42.203Z,36.00
2022-12-16T21:13:32.347Z,36.33
2022-12-16T21:16:21.743Z,38.28
2022-12-16T21:19:07.471Z,36.95
2022-12-16T21:21:53.539Z,36.33
2022-12-16T21:24:38.713Z,35.78
2022-12-16T21:27:24.125Z,36.92
2022-12-16T21:30:09.942Z,36.30
2022-12-16T21:32:55.320Z,36.85
2022-12-16T21:35:42.408Z,37.03
2022-12-16T21:38:29.034Z,36.42
2022-12-16T21:41:14.413Z,35.53
2022-12-16T21:43:59.953Z,35.55
2022-12-16T21:46:45.479Z,36.03
2022-12-16T21:49:31.020Z,36.80
2022-12-16T21:52:16.153Z,35.97
2022-12-16T21:55:01.515Z,35.90
2022-12-16T21:57:46.881Z,35.47
2022-12-16T22:00:32.630Z,36.92
2022-12-16T22:03:18.103Z,37.42
2022-12-16T22:06:03.674Z,36.20
2022-12-16T22:08:48.861Z,36.20
2022-12-16T22:11:35.355Z,36.15
2022-12-16T22:14:21.070Z,35.10
2022-12-16T22:17:06.532Z,34.47
2022-12-16T22:22:59.982Z,34.50
2022-12-16T22:25:48.397Z,35.55
2022-12-16T22:28:35.411Z,35.65
2022-12-16T22:31:40.533Z,35.47
2022-12-16T22:34:25.733Z,35.75
2022-12-16T22:36:22.085Z,35.13
2022-12-16T22:37:11.215Z,35.97
2022-12-16T22:43:05.725Z,37.03
2022-12-16T22:45:50.834Z,38.55
2022-12-16T22:48:37.315Z,36.63
2022-12-16T22:51:22.515Z,35.13
2022-12-16T22:54:09.517Z,35.53
2022-12-16T22:56:56.414Z,36.35
2022-12-16T22:59:41.896Z,37.42
2022-12-16T23:02:28.236Z,37.97
2022-12-16T23:05:13.992Z,37.42
2022-12-16T23:07:59.374Z,37.90
2022-12-16T23:10:44.712Z,37.78
2022-12-16T23:13:31.010Z,36.17
2022-12-16T23:16:16.520Z,36.13
2022-12-16T23:19:21.749Z,38.58
2022-12-16T23:22:07.168Z,37.00
2022-12-16T23:24:55.100Z,37.22
2022-12-16T23:27:42.392Z,37.15
2022-12-16T23:30:28.136Z,39.10
2022-12-16T23:33:17.926Z,37.25
2022-12-16T23:36:03.140Z,35.97
2022-12-16T23:38:48.935Z,37.75
2022-12-16T23:41:34.197Z,37.40
2022-12-16T23:44:19.681Z,36.53
2022-12-16T23:47:04.816Z,38.30
2022-12-16T23:49:50.293Z,36.97
2022-12-16T23:52:35.531Z,37.92
2022-12-16T23:55:20.948Z,36.00
2022-12-16T23:58:06.286Z,37.17
